createdAt,value
2022-09-03T00:00:04.932Z,100737.72
2022-09-03T00:02:52.590Z,100736.69
2022-09-03T00:05:25.416Z,100733.53
2022-09-03T00:08:23.291Z,100741.16
2022-09-03T00:10:55.253Z,100736.88
2022-09-03T00:13:45.812Z,100739.47
2022-09-03T00:16:18.342Z,100742.78
2022-09-03T00:18:50.608Z,100743.09
2022-09-03T00:21:35.165Z,100751.03
2022-09-03T00:24:06.483Z,100749.66
2022-09-03T00:26:40.755Z,100748.03
2022-09-03T00:29:16.134Z,100750.13
2022-09-03T00:31:58.879Z,100745.50
2022-09-03T00:34:32.512Z,100754.59
2022-09-03T00:37:00.324Z,100740.53
2022-09-03T00:39:28.937Z,100742.03
2022-09-03T00:42:14.424Z,100744.19
2022-09-03T00:44:55.040Z,100749.09
2022-09-03T00:48:01.163Z,100755.44
2022-09-03T00:50:31.533Z,100745.19
2022-09-03T00:53:31.147Z,100747.62
2022-09-03T00:56:19.571Z,100756.75
2022-09-03T00:59:10.045Z,100764.16
2022-09-03T01:02:18.018Z,100768.47
2022-09-03T01:05:01.760Z,100765.44
2022-09-03T01:08:08.204Z,100772.03
2022-09-03T01:11:20.045Z,100768.25
2022-09-03T01:14:03.139Z,100772.41
2022-09-03T01:16:40.317Z,100763.63
2022-09-03T01:19:45.952Z,100774.59
2022-09-03T01:22:32.167Z,100784.94
2022-09-03T01:25:17.685Z,100787.72
2022-09-03T01:28:22.745Z,100780.09
2022-09-03T01:31:01.580Z,100798.28
2022-09-03T01:33:40.272Z,100791.44
2022-09-03T01:36:21.380Z,100787.72
2022-09-03T01:39:17.958Z,100797.25
2022-09-03T01:42:20.849Z,100798.38
2022-09-03T01:45:21.480Z,100792.59
2022-09-03T01:48:04.264Z,100795.28
2022-09-03T01:51:02.410Z,100796.56
2022-09-03T01:54:17.988Z,100795.22
2022-09-03T01:57:06.986Z,100793.56
2022-09-03T01:59:48.875Z,100798.97
2022-09-03T02:02:25.434Z,100785.09
2022-09-03T02:05:19.335Z,100789.16
2022-09-03T02:08:01.440Z,100788.31
2022-09-03T02:10:45.529Z,100794.50
2022-09-03T02:13:18.863Z,100789.34
2022-09-03T02:15:48.787Z,100807.06
2022-09-03T02:18:26.208Z,100805.31
2022-09-03T02:20:54.884Z,100808.62
2022-09-03T02:23:27.720Z,100806.66
2022-09-03T02:25:59.656Z,100809.66
2022-09-03T02:28:30.856Z,100802.44
2022-09-03T02:30:59.039Z,100805.22
2022-09-03T02:33:27.630Z,100797.22
2022-09-03T02:35:55.294Z,100806.66
2022-09-03T02:38:26.160Z,100800.75
2022-09-03T02:40:54.964Z,100801.41
2022-09-03T02:43:31.105Z,100802.63
2022-09-03T02:46:04.353Z,100799.47
2022-09-03T02:48:31.996Z,100798.16
2022-09-03T02:50:59.809Z,100799.47
2022-09-03T02:53:29.038Z,100799.16
2022-09-03T02:56:00.581Z,100799.47
2022-09-03T02:58:31.583Z,100803.41
2022-09-03T03:00:59.657Z,100803.09
2022-09-03T03:03:27.250Z,100801.62
2022-09-03T03:05:57.913Z,100810.84
2022-09-03T03:08:28.841Z,100806.81
2022-09-03T03:10:58.785Z,100809.22
2022-09-03T03:13:28.133Z,100809.97
2022-09-03T03:16:00.085Z,100808.75
2022-09-03T03:18:28.288Z,100810.53
2022-09-03T03:20:56.049Z,100802.50
2022-09-03T03:23:24.051Z,100801.22
2022-09-03T03:25:51.608Z,100799.91
2022-09-03T03:28:20.612Z,100803.75
2022-09-03T03:30:48.956Z,100805.78
2022-09-03T03:33:16.547Z,100811.66
2022-09-03T03:35:44.376Z,100810.13
2022-09-03T03:38:11.809Z,100809.31
2022-09-03T03:40:39.836Z,100806.50
2022-09-03T03:43:07.576Z,100810.19
2022-09-03T03:45:35.063Z,100821.62
2022-09-03T03:48:02.655Z,100813.97
2022-09-03T03:50:30.439Z,100817.28
2022-09-03T03:53:01.220Z,100811.78
2022-09-03T03:55:29.356Z,100817.59
2022-09-03T03:58:02.991Z,100818.09
2022-09-03T04:00:30.592Z,100815.53
2022-09-03T04:02:59.380Z,100823.37
2022-09-03T04:05:26.795Z,100823.47
2022-09-03T04:07:54.595Z,100828.09
2022-09-03T04:10:22.354Z,100834.06
2022-09-03T04:12:49.773Z,100826.69
2022-09-03T04:15:17.340Z,100831.81
2022-09-03T04:17:45.470Z,100829.87
2022-09-03T04:20:12.943Z,100833.34
2022-09-03T04:22:40.365Z,100835.84
2022-09-03T04:25:08.625Z,100832.88
2022-09-03T04:27:36.119Z,100835.84
2022-09-03T04:30:03.895Z,100841.28
2022-09-03T04:32:52.619Z,100839.94
2022-09-03T04:35:21.049Z,100840.28
2022-09-03T04:37:48.990Z,100850.25
2022-09-03T04:40:16.473Z,100845.94
2022-09-03T04:42:44.039Z,100849.34
2022-09-03T04:45:12.335Z,100856.34
2022-09-03T04:47:39.828Z,100855.97
2022-09-03T04:50:07.805Z,100862.28
2022-09-03T04:52:35.608Z,100861.34
2022-09-03T04:55:03.133Z,100868.28
2022-09-03T04:57:35.399Z,100870.53
2022-09-03T05:00:04.896Z,100868.88
2022-09-03T05:02:32.362Z,100866.16
2022-09-03T05:04:59.862Z,100864.22
2022-09-03T05:07:29.451Z,100865.84
2022-09-03T05:09:56.928Z,100857.59
2022-09-03T05:12:24.501Z,100858.06
2022-09-03T05:14:52.209Z,100854.00
2022-09-03T05:17:19.917Z,100853.00
2022-09-03T05:19:47.364Z,100850.56
2022-09-03T05:22:21.193Z,100859.34
2022-09-03T05:24:48.985Z,100862.09
2022-09-03T05:27:17.148Z,100861.81
2022-09-03T05:29:45.348Z,100869.66
2022-09-03T05:32:13.605Z,100868.03
2022-09-03T05:34:41.360Z,100871.09
2022-09-03T05:37:09.029Z,100865.25
2022-09-03T05:39:36.576Z,100870.94
2022-09-03T05:42:04.748Z,100864.66
2022-09-03T05:44:33.520Z,100860.28
2022-09-03T05:47:00.978Z,100862.75
2022-09-03T05:49:30.312Z,100858.00
2022-09-03T05:51:57.920Z,100858.19
2022-09-03T05:54:25.404Z,100856.34
2022-09-03T05:56:53.111Z,100857.81
2022-09-03T05:59:20.694Z,100864.97
2022-09-03T06:01:51.506Z,100868.28
2022-09-03T06:04:20.676Z,100861.16
2022-09-03T06:06:48.598Z,100864.78
2022-09-03T06:09:18.790Z,100868.41
2022-09-03T06:11:49.111Z,100860.53
2022-09-03T06:14:17.948Z,100860.84
2022-09-03T06:16:52.760Z,100861.00
2022-09-03T06:19:20.597Z,100855.38
2022-09-03T06:21:48.316Z,100847.91
2022-09-03T06:24:26.274Z,100856.69
2022-09-03T06:26:54.317Z,100856.53
2022-09-03T06:29:21.990Z,100861.38
2022-09-03T06:31:50.871Z,100864.66
2022-09-03T06:34:19.289Z,100863.00
2022-09-03T06:36:46.794Z,100860.00
2022-09-03T06:39:14.257Z,100860.34
2022-09-03T06:41:42.024Z,100860.53
2022-09-03T06:44:13.155Z,100862.19
2022-09-03T06:46:44.466Z,100859.19
2022-09-03T06:49:12.239Z,100861.03
2022-09-03T06:51:40.428Z,100859.38
2022-09-03T06:54:10.437Z,100862.38
2022-09-03T06:56:41.220Z,100866.56
2022-09-03T06:59:14.368Z,100873.41
2022-09-03T07:01:45.421Z,100863.66
2022-09-03T07:04:16.629Z,100866.25
2022-09-03T07:06:45.282Z,100869.31
2022-09-03T07:09:14.937Z,100862.50
2022-09-03T07:11:48.141Z,100872.53
2022-09-03T07:14:18.720Z,100872.03
2022-09-03T07:16:47.169Z,100880.75
2022-09-03T07:19:15.329Z,100885.59
2022-09-03T07:21:48.370Z,100871.37
2022-09-03T07:24:18.248Z,100884.63
2022-09-03T07:26:49.480Z,100883.81
2022-09-03T07:29:20.381Z,100879.09
2022-09-03T07:31:51.901Z,100879.91
2022-09-03T07:34:22.031Z,100880.50
2022-09-03T07:36:51.919Z,100878.28
2022-09-03T07:39:19.861Z,100882.88
2022-09-03T07:41:48.082Z,100880.06
2022-09-03T07:44:23.045Z,100878.69
2022-09-03T07:46:51.468Z,100886.06
2022-09-03T07:49:21.706Z,100888.88
2022-09-03T07:51:52.312Z,100889.59
2022-09-03T07:54:21.801Z,100906.03
2022-09-03T07:56:49.277Z,100899.31
2022-09-03T07:59:17.042Z,100895.56
2022-09-03T08:01:44.841Z,100889.59
2022-09-03T08:04:12.593Z,100890.63
2022-09-03T08:06:40.250Z,100888.91
2022-09-03T08:09:13.821Z,100885.88
2022-09-03T08:11:43.756Z,100883.09
2022-09-03T08:14:13.108Z,100884.53
2022-09-03T08:16:48.120Z,100875.28
2022-09-03T08:19:18.344Z,100879.97
2022-09-03T08:21:46.415Z,100886.88
2022-09-03T08:24:16.701Z,100886.03
2022-09-03T08:26:50.616Z,100890.00
2022-09-03T08:29:20.244Z,100890.06
2022-09-03T08:31:48.554Z,100898.50
2022-09-03T08:34:17.659Z,100899.28
2022-09-03T08:36:47.106Z,100893.81
2022-09-03T08:39:15.455Z,100892.06
2022-09-03T08:41:55.071Z,100901.75
2022-09-03T08:44:28.224Z,100906.19
2022-09-03T08:47:02.291Z,100901.56
2022-09-03T08:50:13.523Z,100897.72
2022-09-03T08:53:11.803Z,100899.75
2022-09-03T08:55:44.909Z,100895.63
2022-09-03T08:58:18.576Z,100903.06
2022-09-03T09:01:13.192Z,100888.94
2022-09-03T09:03:58.498Z,100892.91
2022-09-03T09:06:47.948Z,100881.66
2022-09-03T09:09:24.625Z,100885.66
2022-09-03T09:12:08.772Z,100874.50
2022-09-03T09:14:58.949Z,100882.75
2022-09-03T09:17:41.524Z,100888.41
2022-09-03T09:20:11.893Z,100892.19
2022-09-03T09:22:43.843Z,100887.87
2022-09-03T09:25:23.314Z,100895.84
2022-09-03T09:27:58.467Z,100892.00
2022-09-03T09:30:26.917Z,100887.16
2022-09-03T09:32:56.213Z,100887.25
2022-09-03T09:35:24.522Z,100886.78
2022-09-03T09:37:55.058Z,100889.59
2022-09-03T09:40:36.724Z,100894.03
2022-09-03T09:43:11.032Z,100899.00
2022-09-03T09:45:40.834Z,100890.31
2022-09-03T09:48:15.667Z,100892.16
2022-09-03T09:50:43.616Z,100901.09
2022-09-03T09:53:15.080Z,100892.69
2022-09-03T09:55:58.014Z,100883.25
2022-09-03T09:58:30.806Z,100890.09
2022-09-03T10:01:13.435Z,100893.78
2022-09-03T10:04:09.480Z,100889.38
2022-09-03T10:06:56.966Z,100898.06
2022-09-03T10:09:31.467Z,100896.56
2022-09-03T10:12:05.822Z,100894.91
2022-09-03T10:14:47.659Z,100884.78
2022-09-03T10:17:40.935Z,100893.97
2022-09-03T10:20:30.244Z,100893.81
2022-09-03T10:23:10.260Z,100895.31
2022-09-03T10:25:50.266Z,100890.06
2022-09-03T10:28:18.528Z,100897.03
2022-09-03T10:31:19.265Z,100891.56
2022-09-03T10:34:18.660Z,100895.97
2022-09-03T10:36:53.620Z,100890.31
2022-09-03T10:39:59.032Z,100887.44
2022-09-03T10:42:54.052Z,100890.16
2022-09-03T10:45:39.204Z,100888.81
2022-09-03T10:48:18.795Z,100887.16
2022-09-03T10:51:06.617Z,100891.47
2022-09-03T10:54:04.617Z,100882.25
2022-09-03T10:57:10.154Z,100888.00
2022-09-03T11:00:12.963Z,100890.06
2022-09-03T11:02:52.643Z,100888.69
2022-09-03T11:05:54.693Z,100878.19
2022-09-03T11:08:44.823Z,100878.59
2022-09-03T11:11:21.864Z,100884.25
2022-09-03T11:13:57.333Z,100873.12
2022-09-03T11:16:32.411Z,100875.75
2022-09-03T11:19:21.904Z,100885.06
2022-09-03T11:21:51.339Z,100877.03
2022-09-03T11:24:26.672Z,100883.69
2022-09-03T11:27:32.867Z,100881.13
2022-09-03T11:30:07.617Z,100887.66
2022-09-03T11:32:52.913Z,100884.53
2022-09-03T11:35:41.712Z,100876.44
2022-09-03T11:38:15.591Z,100878.59
2022-09-03T11:41:32.255Z,100875.19
2022-09-03T11:44:11.986Z,100874.75
2022-09-03T11:46:40.517Z,100869.59
2022-09-03T11:49:13.771Z,100868.63
2022-09-03T11:51:45.014Z,100867.19
2022-09-03T11:54:12.684Z,100867.91
2022-09-03T11:56:42.653Z,100861.63
2022-09-03T11:59:13.785Z,100872.50
2022-09-03T12:01:58.979Z,100854.63
2022-09-03T12:04:49.148Z,100860.97
2022-09-03T12:07:48.368Z,100864.66
2022-09-03T12:10:26.384Z,100862.84
2022-09-03T12:13:03.547Z,100872.31
2022-09-03T12:15:52.199Z,100865.00
2022-09-03T12:18:24.677Z,100870.53
2022-09-03T12:20:52.764Z,100861.13
2022-09-03T12:23:30.746Z,100858.31
2022-09-03T12:26:04.073Z,100857.09
2022-09-03T12:28:33.265Z,100860.34
2022-09-03T12:31:22.932Z,100856.38
2022-09-03T12:33:56.324Z,100849.34
2022-09-03T12:36:24.355Z,100857.19
2022-09-03T12:39:11.070Z,100851.34
2022-09-03T12:41:53.644Z,100851.88
2022-09-03T12:44:30.029Z,100843.34
2022-09-03T12:49:56.986Z,100836.47
2022-09-03T12:52:29.709Z,100830.28
2022-09-03T12:55:00.811Z,100826.63
2022-09-03T12:57:45.829Z,100823.47
2022-09-03T13:00:16.272Z,100829.28
2022-09-03T13:02:59.980Z,100825.78
2022-09-03T13:05:42.687Z,100826.09
2022-09-03T13:08:18.850Z,100820.97
2022-09-03T13:10:54.124Z,100817.84
2022-09-03T13:13:32.003Z,100816.94
2022-09-03T13:16:31.630Z,100823.34
2022-09-03T13:19:17.597Z,100816.59
2022-09-03T13:22:04.214Z,100821.03
2022-09-03T13:24:56.821Z,100818.66
2022-09-03T13:27:33.326Z,100814.50
2022-09-03T13:30:32.443Z,100810.19
2022-09-03T13:33:05.881Z,100799.69
2022-09-03T13:35:47.177Z,100801.28
2022-09-03T13:38:46.212Z,100806.63
2022-09-03T13:41:41.924Z,100797.38
2022-09-03T13:44:22.772Z,100794.50
2022-09-03T13:47:02.355Z,100794.91
2022-09-03T13:50:22.012Z,100797.34
2022-09-03T13:53:02.756Z,100799.75
2022-09-03T13:55:51.170Z,100795.66
2022-09-03T13:58:18.872Z,100792.38
2022-09-03T14:00:53.181Z,100790.22
2022-09-03T14:03:50.871Z,100791.56
2022-09-03T14:06:33.499Z,100804.28
2022-09-03T14:09:40.054Z,100805.56
2022-09-03T14:12:19.199Z,100804.72
2022-09-03T14:15:14.284Z,100800.22
2022-09-03T14:17:46.304Z,100800.31
2022-09-03T14:20:31.511Z,100796.19
2022-09-03T14:23:04.664Z,100792.25
2022-09-03T14:25:32.886Z,100789.50
2022-09-03T14:28:31.852Z,100793.09
2022-09-03T14:30:59.527Z,100783.97
2022-09-03T14:33:39.180Z,100791.22
2022-09-03T14:36:53.696Z,100784.62
2022-09-03T14:39:32.766Z,100788.53
2022-09-03T14:42:27.468Z,100783.19
2022-09-03T14:44:57.951Z,100787.72
2022-09-03T14:47:44.213Z,100793.56
2022-09-03T14:50:36.168Z,100786.31
2022-09-03T14:53:35.950Z,100789.66
2022-09-03T14:56:15.747Z,100786.78
2022-09-03T14:59:22.577Z,100785.87
2022-09-03T15:02:31.082Z,100783.19
2022-09-03T15:05:14.149Z,100781.09
2022-09-03T15:07:59.196Z,100787.28
2022-09-03T15:10:32.724Z,100778.84
2022-09-03T15:13:10.591Z,100782.09
2022-09-03T15:15:41.511Z,100784.88
2022-09-03T15:18:24.952Z,100792.50
2022-09-03T15:21:24.994Z,100781.81
2022-09-03T15:24:31.583Z,100781.16
2022-09-03T15:27:17.382Z,100785.53
2022-09-03T15:30:14.699Z,100778.91
2022-09-03T15:32:42.356Z,100775.00
2022-09-03T15:35:19.179Z,100779.69
2022-09-03T15:37:57.825Z,100771.84
2022-09-03T15:40:34.513Z,100772.91
2022-09-03T15:43:23.047Z,100765.91
2022-09-03T15:46:00.683Z,100772.94
2022-09-03T15:48:44.623Z,100781.78
2022-09-03T15:51:23.264Z,100782.03
2022-09-03T15:54:03.001Z,100771.09
2022-09-03T15:57:01.628Z,100775.25
2022-09-03T15:59:56.985Z,100770.31
2022-09-03T16:02:33.995Z,100765.38
2022-09-03T16:05:08.000Z,100768.47
2022-09-03T16:07:45.576Z,100764.12
2022-09-03T16:10:25.299Z,100763.75
2022-09-03T16:13:31.881Z,100771.53
2022-09-03T16:16:06.542Z,100780.59
2022-09-03T16:18:45.615Z,100781.41
2022-09-03T16:21:52.331Z,100778.94
2022-09-03T16:24:41.239Z,100783.44
2022-09-03T16:27:20.431Z,100774.19
2022-09-03T16:30:10.349Z,100780.16
2022-09-03T16:33:15.460Z,100783.81
2022-09-03T16:36:03.335Z,100773.91
2022-09-03T16:38:43.752Z,100773.28
2022-09-03T16:41:15.677Z,100772.63
2022-09-03T16:44:06.022Z,100772.22
2022-09-03T16:46:58.625Z,100781.25
2022-09-03T16:50:00.237Z,100785.28
2022-09-03T16:52:54.059Z,100787.72
2022-09-03T16:55:24.911Z,100784.38
2022-09-03T16:57:58.343Z,100788.22
2022-09-03T17:01:08.872Z,100784.50
2022-09-03T17:03:39.276Z,100781.69
2022-09-03T17:06:10.108Z,100783.53
2022-09-03T17:09:14.984Z,100792.69
2022-09-03T17:12:08.377Z,100796.97
2022-09-03T17:15:00.715Z,100803.91
2022-09-03T17:18:23.005Z,100803.22
2022-09-03T17:21:06.368Z,100800.88
2022-09-03T17:24:13.257Z,100812.94
2022-09-03T17:26:56.997Z,100807.44
2022-09-03T17:29:35.860Z,100817.03
2022-09-03T17:32:46.109Z,100816.41
2022-09-03T17:36:01.688Z,100819.34
2022-09-03T17:38:50.785Z,100809.00
2022-09-03T17:41:37.395Z,100815.53
2022-09-03T17:44:23.250Z,100821.00
2022-09-03T17:47:27.808Z,100818.31
2022-09-03T17:50:16.863Z,100833.13
2022-09-03T17:52:52.393Z,100835.06
2022-09-03T17:55:28.891Z,100837.47
2022-09-03T17:58:27.636Z,100841.78
2022-09-03T18:01:18.770Z,100848.62
2022-09-03T18:03:55.633Z,100852.66
2022-09-03T18:06:41.371Z,100858.34
2022-09-03T18:09:37.849Z,100861.59
2022-09-03T18:12:29.735Z,100861.50
2022-09-03T18:15:32.344Z,100862.06
2022-09-03T18:18:29.141Z,100860.56
2022-09-03T18:21:26.431Z,100858.47
2022-09-03T18:24:26.097Z,100862.50
2022-09-03T18:27:20.169Z,100865.34
2022-09-03T18:30:17.780Z,100865.25
2022-09-03T18:33:04.252Z,100872.81
2022-09-03T18:35:54.206Z,100871.31
2022-09-03T18:38:46.279Z,100868.84
2022-09-03T18:41:38.547Z,100851.97
2022-09-03T18:45:21.033Z,100869.91
2022-09-03T18:48:34.484Z,100863.75
2022-09-03T18:51:45.951Z,100872.09
2022-09-03T18:55:07.834Z,100878.63
2022-09-03T18:58:21.157Z,100875.16
2022-09-03T19:01:25.810Z,100873.03
2022-09-03T19:04:50.552Z,100880.50
2022-09-03T19:08:00.032Z,100881.53
2022-09-03T19:11:36.167Z,100873.91
2022-09-03T19:14:32.725Z,100877.75
2022-09-03T19:17:46.177Z,100871.59
2022-09-03T19:20:48.676Z,100876.28
2022-09-03T19:23:35.259Z,100877.44
2022-09-03T19:26:45.127Z,100869.28
2022-09-03T19:29:51.552Z,100873.50
2022-09-03T19:32:47.244Z,100869.00
2022-09-03T19:35:37.479Z,100877.00
2022-09-03T19:38:41.600Z,100880.03
2022-09-03T19:41:28.203Z,100878.53
2022-09-03T19:44:49.906Z,100873.56
2022-09-03T19:48:02.833Z,100874.75
2022-09-03T19:50:56.561Z,100877.78
2022-09-03T19:53:42.860Z,100885.41
2022-09-03T19:56:45.741Z,100883.28
2022-09-03T19:59:38.800Z,100890.50
2022-09-03T20:02:25.184Z,100885.72
2022-09-03T20:05:19.813Z,100889.84
2022-09-03T20:08:09.555Z,100892.03
2022-09-03T20:10:37.623Z,100891.56
2022-09-03T20:13:13.555Z,100900.06
2022-09-03T20:15:54.197Z,100894.94
2022-09-03T20:19:02.138Z,100900.12
2022-09-03T20:21:43.852Z,100904.81
2022-09-03T20:24:43.523Z,100909.81
2022-09-03T20:27:29.010Z,100908.69
2022-09-03T20:30:07.862Z,100900.88
2022-09-03T20:32:57.750Z,100908.72
2022-09-03T20:35:41.428Z,100906.41
2022-09-03T20:38:24.473Z,100905.28
2022-09-03T20:41:08.477Z,100913.75
2022-09-03T20:44:00.205Z,100909.78
2022-09-03T20:47:12.528Z,100918.28
2022-09-03T20:49:46.256Z,100910.47
2022-09-03T20:52:22.652Z,100918.78
2022-09-03T20:55:25.854Z,100920.16
2022-09-03T20:58:03.657Z,100921.47
2022-09-03T21:00:45.171Z,100918.16
2022-09-03T21:03:16.365Z,100926.81
2022-09-03T21:05:56.009Z,100928.66
2022-09-03T21:08:47.977Z,100929.81
2022-09-03T21:11:35.159Z,100936.66
2022-09-03T21:14:17.396Z,100942.00
2022-09-03T21:16:48.399Z,100944.16
2022-09-03T21:19:21.997Z,100933.03
2022-09-03T21:22:07.199Z,100935.88
2022-09-03T21:24:56.908Z,100934.53
2022-09-03T21:27:32.469Z,100928.41
2022-09-03T21:30:07.116Z,100938.56
2022-09-03T21:32:48.430Z,100938.06
2022-09-03T21:35:18.919Z,100939.56
2022-09-03T21:38:04.601Z,100935.22
2022-09-03T21:40:34.540Z,100937.59
2022-09-03T21:43:12.165Z,100936.53
2022-09-03T21:45:47.093Z,100934.72
2022-09-03T21:48:35.598Z,100940.03
2022-09-03T21:51:31.291Z,100935.88
2022-09-03T21:54:18.903Z,100938.37
2022-09-03T21:57:25.039Z,100939.84
2022-09-03T22:00:20.086Z,100947.47
2022-09-03T22:02:49.588Z,100941.13
2022-09-03T22:05:18.783Z,100932.66
2022-09-03T22:08:15.436Z,100933.47
2022-09-03T22:11:06.288Z,100938.28
2022-09-03T22:14:10.012Z,100941.75
2022-09-03T22:16:45.114Z,100941.75
2022-09-03T22:19:12.642Z,100936.09
2022-09-03T22:22:01.063Z,100938.72
2022-09-03T22:24:58.819Z,100942.97
2022-09-03T22:27:37.020Z,100938.84
2022-09-03T22:30:14.672Z,100945.63
2022-09-03T22:33:15.454Z,100953.66
2022-09-03T22:36:07.931Z,100939.53
2022-09-03T22:38:53.804Z,100948.22
2022-09-03T22:41:32.115Z,100942.41
2022-09-03T22:44:05.635Z,100945.00
2022-09-03T22:46:46.489Z,100939.97
2022-09-03T22:49:25.984Z,100944.75
2022-09-03T22:52:20.777Z,100947.22
2022-09-03T22:55:00.491Z,100942.78
2022-09-03T22:57:33.120Z,100943.41
2022-09-03T23:00:08.134Z,100942.78
2022-09-03T23:02:38.061Z,100950.69
2022-09-03T23:05:15.063Z,100953.38
2022-09-03T23:07:54.101Z,100956.25
2022-09-03T23:10:30.856Z,100948.50
2022-09-03T23:13:21.012Z,100951.06
2022-09-03T23:16:03.150Z,100942.00
2022-09-03T23:18:35.047Z,100952.59
2022-09-03T23:21:11.808Z,100957.12
2022-09-03T23:23:50.688Z,100955.97
2022-09-03T23:26:37.168Z,100954.56
2022-09-03T23:29:45.573Z,100948.97
2022-09-03T23:32:13.401Z,100950.72
2022-09-03T23:34:41.188Z,100956.38
2022-09-03T23:37:33.393Z,100949.84
2022-09-03T23:40:28.137Z,100952.09
2022-09-03T23:43:07.852Z,100952.44
2022-09-03T23:46:14.857Z,100949.25
2022-09-03T23:48:42.808Z,100950.06
2022-09-03T23:51:23.939Z,100954.41
2022-09-03T23:54:00.426Z,100952.37
2022-09-03T23:56:50.865Z,100954.16
2022-09-03T23:59:40.734Z,100960.31
